createdAt,value
2023-01-19T00:01:41.895Z,50.10
2023-01-19T00:04:09.749Z,54.30
2023-01-19T00:06:37.508Z,51.60
2023-01-19T00:09:05.227Z,48.20
2023-01-19T00:11:32.989Z,46.50
2023-01-19T00:14:00.693Z,44.80
2023-01-19T00:16:30.567Z,47.10
2023-01-19T00:18:58.252Z,49.00
2023-01-19T00:21:26.209Z,45.30
2023-01-19T00:23:53.871Z,44.00
2023-01-19T00:26:22.357Z,48.70
2023-01-19T00:28:53.149Z,53.40
2023-01-19T00:31:21.712Z,52.90
2023-01-19T00:33:51.608Z,52.20
2023-01-19T00:36:19.925Z,42.30
2023-01-19T00:38:47.770Z,46.60
2023-01-19T00:41:15.745Z,50.50
2023-01-19T00:43:43.627Z,45.60
2023-01-19T00:46:11.415Z,53.30
2023-01-19T00:48:39.205Z,54.10
2023-01-19T00:51:06.876Z,60.60
2023-01-19T00:53:34.617Z,51.10
2023-01-19T00:56:04.886Z,48.40
2023-01-19T00:58:32.517Z,50.10
2023-01-19T01:01:04.850Z,48.40
2023-01-19T01:03:33.098Z,48.60
2023-01-19T01:06:00.959Z,52.80
2023-01-19T01:08:28.642Z,47.30
2023-01-19T01:10:57.108Z,46.10
2023-01-19T01:13:27.944Z,57.50
2023-01-19T01:15:57.188Z,54.40
2023-01-19T01:18:26.225Z,46.80
2023-01-19T01:21:01.773Z,47.70
2023-01-19T01:23:29.724Z,48.20
2023-01-19T01:25:57.507Z,48.20
2023-01-19T01:28:25.922Z,46.80
2023-01-19T01:30:57.167Z,46.80
2023-01-19T01:33:41.302Z,48.60
2023-01-19T01:36:12.254Z,55.30
2023-01-19T01:38:43.867Z,66.80
2023-01-19T01:41:12.393Z,68.80
2023-01-19T01:43:50.456Z,65.70
2023-01-19T01:46:20.179Z,60.90
2023-01-19T01:49:05.736Z,66.80
2023-01-19T01:51:52.027Z,57.10
2023-01-19T01:54:29.763Z,60.30
2023-01-19T01:57:03.640Z,55.20
2023-01-19T01:59:43.242Z,52.80
2023-01-19T02:02:38.015Z,57.30
2023-01-19T02:05:17.374Z,55.80
2023-01-19T02:08:26.328Z,50.20
2023-01-19T02:11:14.220Z,49.70
2023-01-19T02:13:47.066Z,52.60
2023-01-19T02:16:17.655Z,48.40
2023-01-19T02:18:46.666Z,47.50
2023-01-19T02:21:31.718Z,48.90
2023-01-19T02:24:02.907Z,62.10
2023-01-19T02:26:40.880Z,56.40
2023-01-19T02:29:14.678Z,63.70
2023-01-19T02:31:42.918Z,57.30
2023-01-19T02:34:15.361Z,60.70
2023-01-19T02:36:52.556Z,67.30
2023-01-19T02:39:36.733Z,60.70
2023-01-19T02:42:12.423Z,60.10
2023-01-19T02:44:45.212Z,62.40
2023-01-19T02:47:14.012Z,66.90
2023-01-19T02:49:41.951Z,73.30
2023-01-19T02:52:18.011Z,76.60
2023-01-19T02:55:09.832Z,64.00
2023-01-19T02:57:46.579Z,61.90
2023-01-19T03:00:25.306Z,59.90
2023-01-19T03:03:32.166Z,59.90
2023-01-19T03:06:15.369Z,56.00
2023-01-19T03:09:09.063Z,59.80
2023-01-19T03:11:45.547Z,57.40
2023-01-19T03:14:22.633Z,73.10
2023-01-19T03:17:01.531Z,75.00
2023-01-19T03:19:37.957Z,59.50
2023-01-19T03:22:13.722Z,52.10
2023-01-19T03:24:46.195Z,61.20
2023-01-19T03:27:32.168Z,49.80
2023-01-19T03:30:09.901Z,44.40
2023-01-19T03:32:51.742Z,44.60
2023-01-19T03:35:25.538Z,52.40
2023-01-19T03:37:58.171Z,55.70
2023-01-19T03:40:32.519Z,56.20
2023-01-19T03:43:03.618Z,49.40
2023-01-19T03:45:36.645Z,44.30
2023-01-19T03:48:05.946Z,39.50
2023-01-19T03:50:33.847Z,41.90
2023-01-19T03:53:14.150Z,43.60
2023-01-19T03:55:47.419Z,36.60
2023-01-19T03:58:15.262Z,40.30
2023-01-19T04:00:43.696Z,45.50
2023-01-19T04:03:15.955Z,44.30
2023-01-19T04:05:45.278Z,45.00
2023-01-19T04:08:13.541Z,48.00
2023-01-19T04:10:41.284Z,41.90
2023-01-19T04:13:09.082Z,50.30
2023-01-19T04:15:37.121Z,41.40
2023-01-19T04:18:05.438Z,41.70
2023-01-19T04:20:33.890Z,42.70
2023-01-19T04:23:02.117Z,45.30
2023-01-19T04:25:30.260Z,50.90
2023-01-19T04:27:58.445Z,49.30
2023-01-19T04:30:27.793Z,53.00
2023-01-19T04:32:56.276Z,47.90
2023-01-19T04:35:24.068Z,50.40
2023-01-19T04:37:51.869Z,54.50
2023-01-19T04:40:20.178Z,48.60
2023-01-19T04:42:47.961Z,48.90
2023-01-19T04:45:15.844Z,48.00
2023-01-19T04:47:43.551Z,55.60
2023-01-19T04:50:11.740Z,63.10
2023-01-19T04:52:39.574Z,54.40
2023-01-19T04:55:08.496Z,49.90
2023-01-19T04:57:36.188Z,51.00
2023-01-19T05:00:06.918Z,67.90
2023-01-19T05:02:35.107Z,63.60
2023-01-19T05:05:05.294Z,59.50
2023-01-19T05:07:32.904Z,65.20
2023-01-19T05:10:01.119Z,77.70
2023-01-19T05:12:28.847Z,77.90
2023-01-19T05:14:56.561Z,88.00
2023-01-19T05:17:24.398Z,73.70
2023-01-19T05:19:52.144Z,77.10
2023-01-19T05:22:20.181Z,77.20
2023-01-19T05:24:47.799Z,94.30
2023-01-19T05:27:15.445Z,88.00
2023-01-19T05:29:43.122Z,87.40
2023-01-19T05:32:11.084Z,94.20
2023-01-19T05:34:39.477Z,102.00
2023-01-19T05:37:07.329Z,104.20
2023-01-19T05:39:35.047Z,98.40
2023-01-19T05:42:02.830Z,96.90
2023-01-19T05:44:30.610Z,128.80
2023-01-19T05:46:58.495Z,127.10
2023-01-19T05:49:26.364Z,143.90
2023-01-19T05:51:54.128Z,156.90
2023-01-19T05:54:21.840Z,167.40
2023-01-19T05:56:51.617Z,154.70
2023-01-19T05:59:24.123Z,115.20
2023-01-19T06:01:53.659Z,116.00
2023-01-19T06:04:21.640Z,87.60
2023-01-19T06:06:50.755Z,86.30
2023-01-19T06:09:18.779Z,82.50
2023-01-19T06:11:47.420Z,86.50
2023-01-19T06:14:15.242Z,77.80
2023-01-19T06:16:43.033Z,77.60
2023-01-19T06:19:11.037Z,83.10
2023-01-19T06:21:38.683Z,77.10
2023-01-19T06:24:06.609Z,81.30
2023-01-19T06:26:34.377Z,78.90
2023-01-19T06:29:02.098Z,78.50
2023-01-19T06:31:29.946Z,72.30
2023-01-19T06:33:57.654Z,68.00
2023-01-19T06:36:25.508Z,73.20
2023-01-19T06:38:53.429Z,75.90
2023-01-19T06:41:21.101Z,73.60
2023-01-19T06:43:49.021Z,70.80
2023-01-19T06:46:16.754Z,73.30
2023-01-19T06:48:44.483Z,71.30
2023-01-19T06:51:12.751Z,58.90
2023-01-19T06:53:40.450Z,52.40
2023-01-19T06:56:09.712Z,52.80
2023-01-19T06:58:37.965Z,67.00
2023-01-19T07:01:07.225Z,64.10
2023-01-19T07:03:38.110Z,60.30
2023-01-19T07:06:09.210Z,54.70
2023-01-19T07:08:38.294Z,62.80
2023-01-19T07:11:26.102Z,55.20
2023-01-19T07:13:59.755Z,45.60
2023-01-19T07:16:27.569Z,60.60
2023-01-19T07:18:55.867Z,51.90
2023-01-19T07:21:23.863Z,56.10
2023-01-19T07:23:52.878Z,65.40
2023-01-19T07:26:21.712Z,62.60
2023-01-19T07:28:50.672Z,68.50
2023-01-19T07:31:19.177Z,60.50
2023-01-19T07:33:47.352Z,53.40
2023-01-19T07:36:15.535Z,40.40
2023-01-19T07:38:43.353Z,50.40
2023-01-19T07:41:11.619Z,50.20
2023-01-19T07:43:39.396Z,32.10
2023-01-19T07:46:08.286Z,57.10
2023-01-19T07:48:36.200Z,61.70
2023-01-19T07:51:11.038Z,50.70
2023-01-19T07:53:41.930Z,49.00
2023-01-19T07:56:10.783Z,42.80
2023-01-19T07:58:39.875Z,41.50
2023-01-19T08:01:13.590Z,45.90
2023-01-19T08:03:41.417Z,36.30
2023-01-19T08:06:22.772Z,27.10
2023-01-19T08:08:51.095Z,26.10
2023-01-19T08:11:18.758Z,34.10
2023-01-19T08:13:46.756Z,46.80
2023-01-19T08:16:14.384Z,44.40
2023-01-19T08:18:42.643Z,45.00
2023-01-19T08:21:10.354Z,46.10
2023-01-19T08:23:38.259Z,61.60
2023-01-19T08:26:30.425Z,60.70
2023-01-19T08:29:02.337Z,47.80
2023-01-19T08:31:30.741Z,60.80
2023-01-19T08:33:58.891Z,46.60
2023-01-19T08:36:27.401Z,51.10
2023-01-19T08:38:55.114Z,44.40
2023-01-19T08:41:23.092Z,33.30
2023-01-19T08:43:50.799Z,28.20
2023-01-19T08:46:21.347Z,24.00
2023-01-19T08:48:50.287Z,23.10
2023-01-19T08:51:18.944Z,35.70
2023-01-19T08:53:48.890Z,34.70
2023-01-19T08:56:18.044Z,32.60
2023-01-19T08:58:53.613Z,22.70
2023-01-19T09:01:31.152Z,38.00
2023-01-19T09:03:59.116Z,43.50
2023-01-19T09:06:28.139Z,46.70
2023-01-19T09:08:55.886Z,43.60
2023-01-19T09:11:23.594Z,42.60
2023-01-19T09:13:51.567Z,40.60
2023-01-19T09:16:19.335Z,38.00
2023-01-19T09:18:47.263Z,43.10
2023-01-19T09:21:16.263Z,40.70
2023-01-19T09:23:44.605Z,44.90
2023-01-19T09:26:12.373Z,54.00
2023-01-19T09:28:40.286Z,54.30
2023-01-19T09:31:09.524Z,57.40
2023-01-19T09:33:37.608Z,43.70
2023-01-19T09:36:05.728Z,36.30
2023-01-19T09:38:34.043Z,34.40
2023-01-19T09:41:01.910Z,29.30
2023-01-19T09:43:47.772Z,22.30
2023-01-19T09:46:39.787Z,24.00
2023-01-19T09:49:23.332Z,32.10
2023-01-19T09:51:51.468Z,35.00
2023-01-19T09:54:45.619Z,26.50
2023-01-19T09:57:14.982Z,24.70
2023-01-19T09:59:43.927Z,18.70
2023-01-19T10:02:46.569Z,24.10
2023-01-19T10:05:35.691Z,28.40
2023-01-19T10:08:27.895Z,31.20
2023-01-19T10:10:58.899Z,39.10
2023-01-19T10:13:51.797Z,31.00
2023-01-19T10:16:31.563Z,28.40
2023-01-19T10:19:38.171Z,23.90
2023-01-19T10:22:28.504Z,35.50
2023-01-19T10:25:01.768Z,17.50
2023-01-19T10:27:35.582Z,17.50
2023-01-19T10:30:04.135Z,24.90
2023-01-19T10:32:35.939Z,29.70
2023-01-19T10:35:21.877Z,29.70
2023-01-19T10:37:58.348Z,27.60
2023-01-19T10:40:37.869Z,20.90
2023-01-19T10:43:43.513Z,29.70
2023-01-19T10:46:34.391Z,16.60
2023-01-19T10:49:02.696Z,20.10
2023-01-19T10:51:30.742Z,14.90
2023-01-19T10:54:04.532Z,20.50
2023-01-19T10:56:38.561Z,32.20
2023-01-19T10:59:07.446Z,31.00
2023-01-19T11:01:37.368Z,25.50
2023-01-19T11:04:29.858Z,19.90
2023-01-19T11:07:21.389Z,19.10
2023-01-19T11:09:50.218Z,18.50
2023-01-19T11:12:24.026Z,14.10
2023-01-19T11:14:53.624Z,16.50
2023-01-19T11:17:25.851Z,21.50
2023-01-19T11:20:02.232Z,29.10
2023-01-19T11:22:33.930Z,44.70
2023-01-19T11:25:04.868Z,44.50
2023-01-19T11:27:37.776Z,40.60
2023-01-19T11:30:17.461Z,29.40
2023-01-19T11:32:47.052Z,31.60
2023-01-19T11:35:38.965Z,30.20
2023-01-19T11:38:13.292Z,18.00
2023-01-19T11:40:50.839Z,25.90
2023-01-19T11:43:22.204Z,24.70
2023-01-19T11:45:49.967Z,27.20
2023-01-19T11:48:36.706Z,29.30
2023-01-19T11:51:13.315Z,24.70
2023-01-19T11:53:49.373Z,16.10
2023-01-19T11:56:21.997Z,21.40
2023-01-19T11:58:50.253Z,30.60
2023-01-19T12:01:34.102Z,30.00
2023-01-19T12:04:14.912Z,29.10
2023-01-19T12:06:54.975Z,26.90
2023-01-19T12:09:31.161Z,25.70
2023-01-19T12:12:07.948Z,22.90
2023-01-19T12:14:54.865Z,14.50
2023-01-19T12:17:45.000Z,11.70
2023-01-19T12:20:31.343Z,21.00
2023-01-19T12:23:16.176Z,24.70
2023-01-19T12:26:44.610Z,27.60
2023-01-19T12:29:17.368Z,15.60
2023-01-19T12:31:45.581Z,15.40
2023-01-19T12:34:47.822Z,22.00
2023-01-19T12:37:28.757Z,10.90
2023-01-19T12:40:01.786Z,21.50
2023-01-19T12:42:30.019Z,26.50
2023-01-19T12:45:14.720Z,23.80
2023-01-19T12:47:53.099Z,16.70
2023-01-19T12:50:25.878Z,17.40
2023-01-19T12:52:58.626Z,24.50
2023-01-19T12:55:31.181Z,14.90
2023-01-19T12:58:17.712Z,14.80
2023-01-19T13:00:49.666Z,26.40
2023-01-19T13:03:26.983Z,26.70
2023-01-19T13:05:56.745Z,34.30
2023-01-19T13:08:29.795Z,34.10
2023-01-19T13:11:00.534Z,25.70
2023-01-19T13:13:40.111Z,38.80
2023-01-19T13:16:20.839Z,22.30
2023-01-19T13:18:57.151Z,24.50
2023-01-19T13:21:30.982Z,16.00
2023-01-19T13:24:04.954Z,24.90
2023-01-19T13:26:41.394Z,35.70
2023-01-19T13:29:34.040Z,41.60
2023-01-19T13:32:25.648Z,38.10
2023-01-19T13:35:01.984Z,43.00
2023-01-19T13:37:41.812Z,35.90
2023-01-19T13:40:21.779Z,30.50
2023-01-19T13:42:53.038Z,31.10
2023-01-19T13:45:33.780Z,24.60
2023-01-19T13:48:07.804Z,36.90
2023-01-19T13:50:39.376Z,39.40
2023-01-19T13:53:24.209Z,41.80
2023-01-19T13:56:17.469Z,37.80
2023-01-19T13:59:17.401Z,29.30
2023-01-19T14:01:47.323Z,40.70
2023-01-19T14:04:34.593Z,29.90
2023-01-19T14:07:15.167Z,25.60
2023-01-19T14:09:44.928Z,20.50
2023-01-19T14:12:17.548Z,43.90
2023-01-19T14:14:49.511Z,43.80
2023-01-19T14:17:37.480Z,47.10
2023-01-19T14:20:06.457Z,44.50
2023-01-19T14:22:41.844Z,44.10
2023-01-19T14:25:32.496Z,38.90
2023-01-19T14:28:29.179Z,55.50
2023-01-19T14:31:01.511Z,62.60
2023-01-19T14:33:41.763Z,48.20
2023-01-19T14:36:39.364Z,48.00
2023-01-19T14:39:23.196Z,54.30
2023-01-19T14:41:53.406Z,62.70
2023-01-19T14:44:40.065Z,84.80
2023-01-19T14:47:29.444Z,65.40
2023-01-19T14:50:07.570Z,62.60
2023-01-19T14:52:41.677Z,55.50
2023-01-19T14:55:49.277Z,47.30
2023-01-19T14:58:21.350Z,47.60
2023-01-19T15:01:01.884Z,32.20
2023-01-19T15:03:43.370Z,54.50
2023-01-19T15:06:20.977Z,65.30
2023-01-19T15:08:50.405Z,69.60
2023-01-19T15:11:26.650Z,71.30
2023-01-19T15:13:55.463Z,64.50
2023-01-19T15:16:24.209Z,54.30
2023-01-19T15:18:52.546Z,56.60
2023-01-19T15:21:26.588Z,51.40
2023-01-19T15:23:55.307Z,54.20
2023-01-19T15:26:26.164Z,44.50
2023-01-19T15:28:56.129Z,52.70
2023-01-19T15:31:26.474Z,49.70
2023-01-19T15:33:54.408Z,50.50
2023-01-19T15:36:25.014Z,44.40
2023-01-19T15:38:53.189Z,47.20
2023-01-19T15:41:26.380Z,39.50
2023-01-19T15:43:54.488Z,43.80
2023-01-19T15:46:25.557Z,51.10
2023-01-19T15:48:54.488Z,43.90
2023-01-19T15:51:25.933Z,44.00
2023-01-19T15:53:55.149Z,54.30
2023-01-19T15:56:31.389Z,57.00
2023-01-19T15:58:59.748Z,62.70
2023-01-19T16:01:33.812Z,59.50
2023-01-19T16:04:06.815Z,63.80
2023-01-19T16:06:34.669Z,64.30
2023-01-19T16:09:03.870Z,56.60
2023-01-19T16:11:34.429Z,67.80
2023-01-19T16:14:02.565Z,45.50
2023-01-19T16:16:30.460Z,59.10
2023-01-19T16:18:58.412Z,67.10
2023-01-19T16:21:26.928Z,73.70
2023-01-19T16:23:54.648Z,71.50
2023-01-19T16:26:34.225Z,63.70
2023-01-19T16:29:10.808Z,60.50
2023-01-19T16:31:41.114Z,58.90
2023-01-19T16:34:10.213Z,58.50
2023-01-19T16:36:41.121Z,39.00
2023-01-19T16:39:13.638Z,30.90
2023-01-19T16:41:43.226Z,50.80
2023-01-19T16:44:16.757Z,48.00
2023-01-19T16:46:49.658Z,47.30
2023-01-19T16:49:24.272Z,47.50
2023-01-19T16:51:54.903Z,38.00
2023-01-19T16:54:28.065Z,44.40
2023-01-19T16:56:58.209Z,51.30
2023-01-19T16:59:27.214Z,40.20
2023-01-19T17:01:55.910Z,43.10
2023-01-19T17:04:26.492Z,60.70
2023-01-19T17:06:55.636Z,51.20
2023-01-19T17:09:23.365Z,47.00
2023-01-19T17:11:51.135Z,43.60
2023-01-19T17:14:22.936Z,50.00
2023-01-19T17:16:50.860Z,46.70
2023-01-19T17:19:22.061Z,41.90
2023-01-19T17:21:50.369Z,36.50
2023-01-19T17:24:20.893Z,36.70
2023-01-19T17:26:48.844Z,36.80
2023-01-19T17:29:17.583Z,40.10
2023-01-19T17:31:46.738Z,48.30
2023-01-19T17:34:14.517Z,62.60
2023-01-19T17:36:42.340Z,56.20
2023-01-19T17:39:14.874Z,68.30
2023-01-19T17:41:42.738Z,43.00
2023-01-19T17:44:10.594Z,45.40
2023-01-19T17:46:39.233Z,52.50
2023-01-19T17:49:08.352Z,60.60
2023-01-19T17:51:36.429Z,67.80
2023-01-19T17:54:04.742Z,67.30
2023-01-19T17:56:36.792Z,49.30
2023-01-19T17:59:07.749Z,42.60
2023-01-19T18:01:39.826Z,41.60
2023-01-19T18:04:08.981Z,58.60
2023-01-19T18:06:38.201Z,51.60
2023-01-19T18:09:07.494Z,49.60
2023-01-19T18:11:35.833Z,127.60
2023-01-19T18:14:05.487Z,48.70
2023-01-19T18:16:33.386Z,52.70
2023-01-19T18:19:01.311Z,85.20
2023-01-19T18:21:30.553Z,89.60
2023-01-19T18:24:02.299Z,77.00
2023-01-19T18:26:33.052Z,71.60
2023-01-19T18:29:01.439Z,52.60
2023-01-19T18:31:30.224Z,50.40
2023-01-19T18:33:58.293Z,56.70
2023-01-19T18:36:28.462Z,42.90
2023-01-19T18:38:56.489Z,44.60
2023-01-19T18:41:24.488Z,43.30
2023-01-19T18:43:56.432Z,49.50
2023-01-19T18:46:24.565Z,56.20
2023-01-19T18:48:53.089Z,57.70
2023-01-19T18:51:20.954Z,66.30
2023-01-19T18:53:48.827Z,60.70
2023-01-19T18:56:16.836Z,49.60
2023-01-19T18:58:45.404Z,57.80
2023-01-19T19:01:27.261Z,90.30
2023-01-19T19:03:56.861Z,148.10
2023-01-19T19:06:27.220Z,99.80
2023-01-19T19:08:59.202Z,62.20
2023-01-19T19:11:28.107Z,53.90
2023-01-19T19:13:59.995Z,62.60
2023-01-19T19:16:29.691Z,54.80
2023-01-19T19:18:59.104Z,57.70
2023-01-19T19:21:27.121Z,60.30
2023-01-19T19:23:57.346Z,60.00
2023-01-19T19:26:28.149Z,47.80
2023-01-19T19:28:56.362Z,54.00
2023-01-19T19:31:26.137Z,55.50
2023-01-19T19:33:56.101Z,56.30
2023-01-19T19:36:27.305Z,46.70
2023-01-19T19:38:55.076Z,50.60
2023-01-19T19:41:27.746Z,38.70
2023-01-19T19:43:56.072Z,47.80
2023-01-19T19:46:25.088Z,47.90
2023-01-19T19:48:54.279Z,48.50
2023-01-19T19:51:29.477Z,54.60
2023-01-19T19:54:00.688Z,48.80
2023-01-19T19:56:32.385Z,51.90
2023-01-19T19:59:00.785Z,58.70
2023-01-19T20:01:33.623Z,61.40
2023-01-19T20:04:11.961Z,71.10
2023-01-19T20:06:44.827Z,65.80
2023-01-19T20:09:14.296Z,51.80
2023-01-19T20:11:45.058Z,56.10
2023-01-19T20:14:16.051Z,53.00
2023-01-19T20:16:44.222Z,50.70
2023-01-19T20:19:11.908Z,56.70
2023-01-19T20:21:42.058Z,64.70
2023-01-19T20:24:20.477Z,58.30
2023-01-19T20:26:52.477Z,52.00
2023-01-19T20:29:20.644Z,53.10
2023-01-19T20:31:55.357Z,75.10
2023-01-19T20:34:32.095Z,69.70
2023-01-19T20:37:02.454Z,70.60
2023-01-19T20:39:33.295Z,57.10
2023-01-19T20:42:02.159Z,73.40
2023-01-19T20:44:30.262Z,61.70
2023-01-19T20:46:58.083Z,53.60
2023-01-19T20:49:28.296Z,63.20
2023-01-19T20:51:56.014Z,54.50
2023-01-19T20:54:27.950Z,75.30
2023-01-19T20:56:57.637Z,69.60
2023-01-19T20:59:26.103Z,51.90
2023-01-19T21:01:53.996Z,47.40
2023-01-19T21:04:22.401Z,47.60
2023-01-19T21:06:50.115Z,42.80
2023-01-19T21:09:18.628Z,45.60
2023-01-19T21:11:46.416Z,45.60
2023-01-19T21:14:14.233Z,41.10
2023-01-19T21:16:42.607Z,35.30
2023-01-19T21:19:10.524Z,43.10
2023-01-19T21:21:38.304Z,44.50
2023-01-19T21:24:06.304Z,40.70
2023-01-19T21:26:34.126Z,40.20
2023-01-19T21:29:04.028Z,40.80
2023-01-19T21:31:32.088Z,58.00
2023-01-19T21:33:59.985Z,57.20
2023-01-19T21:36:27.691Z,43.90
2023-01-19T21:39:00.543Z,45.10
2023-01-19T21:41:30.100Z,46.90
2023-01-19T21:43:59.984Z,37.40
2023-01-19T21:46:33.034Z,49.00
2023-01-19T21:49:04.711Z,51.60
2023-01-19T21:51:37.015Z,51.90
2023-01-19T21:54:06.640Z,50.00
2023-01-19T21:56:37.860Z,42.50
2023-01-19T21:59:06.121Z,45.70
2023-01-19T22:01:34.977Z,46.50
2023-01-19T22:04:02.899Z,49.80
2023-01-19T22:06:30.586Z,45.90
2023-01-19T22:08:58.411Z,43.40
2023-01-19T22:11:26.697Z,42.10
2023-01-19T22:13:54.660Z,57.70
2023-01-19T22:16:23.985Z,42.00
2023-01-19T22:18:59.271Z,41.20
2023-01-19T22:21:31.721Z,38.50
2023-01-19T22:24:04.178Z,45.10
2023-01-19T22:26:34.158Z,41.10
2023-01-19T22:29:04.557Z,45.40
2023-01-19T22:31:32.716Z,44.30
2023-01-19T22:34:00.580Z,39.80
2023-01-19T22:36:31.832Z,44.70
2023-01-19T22:39:11.904Z,46.40
2023-01-19T22:41:45.129Z,44.90
2023-01-19T22:44:21.038Z,44.30
2023-01-19T22:46:53.542Z,45.60
2023-01-19T22:49:21.275Z,43.70
2023-01-19T22:51:52.575Z,40.10
2023-01-19T22:54:23.016Z,42.40
2023-01-19T22:56:50.703Z,39.50
2023-01-19T22:59:18.437Z,43.60
2023-01-19T23:01:47.216Z,43.90
2023-01-19T23:04:16.044Z,44.50
2023-01-19T23:06:46.949Z,38.80
2023-01-19T23:09:15.956Z,45.50
2023-01-19T23:11:51.230Z,50.40
2023-01-19T23:14:22.087Z,47.60
2023-01-19T23:16:49.925Z,45.10
2023-01-19T23:19:18.204Z,49.70
2023-01-19T23:21:46.197Z,50.10
2023-01-19T23:24:14.046Z,54.60
2023-01-19T23:26:41.860Z,58.10
2023-01-19T23:29:15.581Z,55.50
2023-01-19T23:31:49.652Z,52.60
2023-01-19T23:34:17.948Z,52.70
2023-01-19T23:36:45.748Z,49.00
2023-01-19T23:39:21.008Z,40.90
2023-01-19T23:41:49.554Z,39.70
2023-01-19T23:44:18.201Z,47.30
2023-01-19T23:46:46.483Z,49.10
2023-01-19T23:49:14.367Z,51.90
2023-01-19T23:51:42.438Z,40.70
2023-01-19T23:54:12.289Z,37.20
2023-01-19T23:56:40.196Z,43.70
2023-01-19T23:59:14.287Z,45.60
